createdAt,value
2022-08-16T00:01:24.509Z,99.90
2022-08-16T00:03:53.333Z,99.90
2022-08-16T00:06:21.677Z,99.90
2022-08-16T00:08:49.679Z,99.90
2022-08-16T00:11:17.036Z,99.90
2022-08-16T00:13:53.645Z,99.90
2022-08-16T00:17:05.331Z,99.90
2022-08-16T00:19:13.450Z,99.90
2022-08-16T00:21:42.104Z,99.90
2022-08-16T00:24:11.643Z,99.90
2022-08-16T00:26:45.026Z,99.90
2022-08-16T00:29:15.755Z,99.90
2022-08-16T00:31:59.652Z,99.90
2022-08-16T00:34:45.193Z,99.90
2022-08-16T00:37:18.669Z,99.90
2022-08-16T00:39:58.640Z,99.90
2022-08-16T00:42:29.713Z,99.90
2022-08-16T00:45:27.773Z,99.90
2022-08-16T00:47:55.769Z,99.90
2022-08-16T00:50:35.866Z,99.90
2022-08-16T00:53:05.851Z,99.90
2022-08-16T00:55:37.978Z,99.90
2022-08-16T00:58:13.001Z,99.90
2022-08-16T01:00:45.646Z,99.90
2022-08-16T01:03:30.143Z,99.90
2022-08-16T01:06:00.097Z,99.90
2022-08-16T01:08:51.848Z,99.90
2022-08-16T01:11:20.279Z,99.90
2022-08-16T01:13:49.225Z,99.90
2022-08-16T01:16:27.050Z,99.90
2022-08-16T01:19:20.193Z,99.90
2022-08-16T01:21:58.173Z,99.90
2022-08-16T01:25:08.282Z,99.90
2022-08-16T01:27:41.644Z,99.90
2022-08-16T01:30:26.314Z,99.90
2022-08-16T01:33:15.329Z,99.90
2022-08-16T01:35:54.279Z,99.90
2022-08-16T01:38:48.932Z,99.90
2022-08-16T01:41:21.315Z,99.90
2022-08-16T01:43:53.621Z,99.90
2022-08-16T01:46:46.821Z,99.90
2022-08-16T01:49:42.824Z,99.90
2022-08-16T01:52:27.949Z,99.90
2022-08-16T01:55:22.999Z,99.90
2022-08-16T01:57:53.718Z,99.90
2022-08-16T02:00:29.499Z,99.90
2022-08-16T02:02:58.794Z,99.90
2022-08-16T02:05:25.946Z,99.90
2022-08-16T02:07:59.300Z,99.90
2022-08-16T02:10:27.228Z,99.90
2022-08-16T02:12:55.688Z,99.90
2022-08-16T02:15:27.466Z,99.90
2022-08-16T02:17:58.504Z,99.90
2022-08-16T02:20:27.807Z,99.90
2022-08-16T02:22:59.709Z,99.90
2022-08-16T02:25:52.100Z,99.90
2022-08-16T02:28:19.261Z,99.90
2022-08-16T02:30:50.942Z,99.90
2022-08-16T02:33:24.981Z,99.90
2022-08-16T02:36:14.214Z,99.90
2022-08-16T02:38:42.402Z,99.90
2022-08-16T02:41:12.089Z,99.90
2022-08-16T02:43:40.939Z,99.90
2022-08-16T02:46:09.810Z,99.90
2022-08-16T02:48:39.848Z,99.90
2022-08-16T02:51:17.539Z,99.90
2022-08-16T02:53:47.917Z,99.90
2022-08-16T02:56:17.656Z,99.90
2022-08-16T02:58:47.254Z,99.90
2022-08-16T03:01:24.890Z,99.90
2022-08-16T03:04:30.132Z,99.90
2022-08-16T03:06:56.329Z,99.90
2022-08-16T03:09:44.804Z,99.90
2022-08-16T03:12:16.460Z,99.90
2022-08-16T03:14:45.778Z,99.90
2022-08-16T03:17:13.468Z,99.90
2022-08-16T03:19:48.217Z,99.90
2022-08-16T03:22:29.208Z,99.90
2022-08-16T03:25:02.339Z,99.90
2022-08-16T03:27:33.097Z,99.90
2022-08-16T03:30:16.034Z,99.90
2022-08-16T03:32:51.579Z,99.90
2022-08-16T03:35:22.398Z,99.90
2022-08-16T03:38:02.678Z,99.90
2022-08-16T03:40:40.518Z,99.90
2022-08-16T03:43:19.637Z,99.90
2022-08-16T03:45:52.499Z,99.90
2022-08-16T03:48:36.585Z,99.90
2022-08-16T03:51:12.370Z,99.90
2022-08-16T03:54:01.026Z,99.90
2022-08-16T03:56:31.354Z,99.90
2022-08-16T03:59:00.619Z,99.90
2022-08-16T04:01:34.027Z,99.90
2022-08-16T04:04:02.260Z,99.90
2022-08-16T04:06:31.553Z,99.90
2022-08-16T04:08:58.640Z,99.90
2022-08-16T04:11:26.564Z,99.90
2022-08-16T04:14:32.425Z,99.90
2022-08-16T04:16:53.223Z,99.90
2022-08-16T04:19:35.458Z,99.90
2022-08-16T04:22:08.661Z,99.90
2022-08-16T04:24:55.244Z,99.90
2022-08-16T04:27:28.946Z,99.90
2022-08-16T04:30:03.052Z,99.90
2022-08-16T04:32:36.201Z,99.90
2022-08-16T04:35:13.643Z,99.90
2022-08-16T04:37:45.460Z,99.90
2022-08-16T04:40:29.613Z,99.90
2022-08-16T04:43:01.347Z,99.90
2022-08-16T04:45:35.541Z,99.90
2022-08-16T04:48:11.651Z,99.90
2022-08-16T04:50:57.356Z,99.90
2022-08-16T04:53:39.574Z,99.90
2022-08-16T04:56:11.262Z,99.90
2022-08-16T04:58:46.157Z,99.90
2022-08-16T05:01:15.555Z,99.90
2022-08-16T05:04:01.357Z,99.90
2022-08-16T05:06:45.913Z,99.90
2022-08-16T05:09:40.295Z,99.90
2022-08-16T05:12:18.139Z,99.90
2022-08-16T05:15:02.667Z,99.90
2022-08-16T05:17:33.749Z,99.90
2022-08-16T05:20:38.774Z,99.90
2022-08-16T05:22:56.541Z,99.90
2022-08-16T05:25:23.639Z,99.90
2022-08-16T05:28:10.853Z,99.90
2022-08-16T05:30:43.738Z,99.90
2022-08-16T05:33:18.274Z,99.90
2022-08-16T05:35:54.984Z,99.90
2022-08-16T05:38:39.370Z,99.90
2022-08-16T05:41:10.903Z,99.90
2022-08-16T05:43:46.726Z,99.90
2022-08-16T05:46:28.867Z,99.90
2022-08-16T05:49:05.965Z,99.90
2022-08-16T05:51:40.421Z,99.90
2022-08-16T05:54:11.426Z,99.90
2022-08-16T05:56:43.121Z,99.90
2022-08-16T05:59:10.985Z,99.90
2022-08-16T06:01:39.267Z,99.90
2022-08-16T06:04:12.907Z,99.90
2022-08-16T06:06:58.594Z,99.90
2022-08-16T06:09:42.591Z,99.90
2022-08-16T06:12:26.424Z,99.90
2022-08-16T06:14:59.389Z,99.90
2022-08-16T06:17:43.291Z,99.90
2022-08-16T06:20:25.661Z,99.90
2022-08-16T06:23:17.553Z,99.90
2022-08-16T06:26:08.167Z,99.90
2022-08-16T06:28:41.801Z,99.90
2022-08-16T06:31:15.573Z,99.90
2022-08-16T06:33:46.673Z,99.90
2022-08-16T06:36:17.083Z,99.90
2022-08-16T06:39:08.738Z,99.90
2022-08-16T06:42:08.785Z,99.90
2022-08-16T06:44:54.492Z,99.90
2022-08-16T06:47:53.849Z,99.90
2022-08-16T06:50:28.729Z,99.90
2022-08-16T06:53:00.378Z,99.90
2022-08-16T06:55:34.484Z,99.90
2022-08-16T06:58:21.763Z,99.90
2022-08-16T07:01:03.810Z,99.90
2022-08-16T07:03:55.346Z,99.90
2022-08-16T07:06:29.982Z,99.90
2022-08-16T07:09:01.045Z,99.90
2022-08-16T07:11:48.208Z,99.90
2022-08-16T07:14:28.236Z,99.90
2022-08-16T07:16:59.031Z,99.90
2022-08-16T07:19:33.692Z,99.90
2022-08-16T07:22:37.741Z,99.90
2022-08-16T07:25:20.417Z,99.90
2022-08-16T07:27:50.464Z,99.90
2022-08-16T07:30:39.043Z,99.90
2022-08-16T07:37:25.051Z,99.90
2022-08-16T07:40:11.282Z,99.90
2022-08-16T07:42:41.194Z,99.90
2022-08-16T07:45:10.441Z,99.90
2022-08-16T07:47:42.037Z,99.90
2022-08-16T07:50:57.299Z,99.90
2022-08-16T07:52:57.824Z,99.90
2022-08-16T07:55:27.851Z,99.90
2022-08-16T07:58:01.000Z,99.50
2022-08-16T08:00:34.265Z,98.20
2022-08-16T08:03:02.665Z,97.10
2022-08-16T08:05:35.937Z,96.50
2022-08-16T08:08:11.525Z,95.50
2022-08-16T08:10:39.561Z,95.20
2022-08-16T08:13:07.738Z,93.30
2022-08-16T08:15:37.120Z,91.30
2022-08-16T08:18:29.509Z,90.60
2022-08-16T08:20:59.401Z,88.50
2022-08-16T08:23:30.509Z,85.60
2022-08-16T08:25:58.446Z,89.40
2022-08-16T08:28:27.545Z,88.70
2022-08-16T08:31:03.693Z,85.30
2022-08-16T08:33:43.780Z,82.20
2022-08-16T08:36:21.912Z,78.80
2022-08-16T08:38:52.448Z,78.60
2022-08-16T08:41:27.322Z,77.70
2022-08-16T08:43:57.129Z,80.10
2022-08-16T08:46:25.940Z,80.20
2022-08-16T08:49:01.934Z,76.60
2022-08-16T08:51:37.092Z,76.80
2022-08-16T08:54:09.429Z,71.40
2022-08-16T08:56:45.553Z,69.00
2022-08-16T08:59:28.513Z,70.60
2022-08-16T09:01:58.631Z,67.20
2022-08-16T09:04:33.472Z,61.70
2022-08-16T09:07:04.025Z,59.20
2022-08-16T09:09:34.165Z,59.70
2022-08-16T09:12:08.387Z,61.60
2022-08-16T09:17:48.722Z,73.00
2022-08-16T09:20:19.933Z,69.50
2022-08-16T09:22:51.484Z,67.30
2022-08-16T09:25:26.458Z,67.40
2022-08-16T09:28:09.278Z,65.10
2022-08-16T09:30:50.164Z,67.00
2022-08-16T09:33:19.895Z,69.50
2022-08-16T09:35:53.111Z,66.60
2022-08-16T09:38:31.365Z,63.40
2022-08-16T09:41:02.160Z,60.70
2022-08-16T09:43:58.689Z,59.20
2022-08-16T09:51:36.890Z,48.60
2022-08-16T09:56:34.662Z,47.10
2022-08-16T10:01:36.517Z,44.70
2022-08-16T10:04:13.108Z,45.20
2022-08-16T10:06:54.317Z,43.70
2022-08-16T10:09:25.525Z,42.30
2022-08-16T10:12:31.674Z,41.00
2022-08-16T10:15:00.602Z,42.00
2022-08-16T10:17:29.348Z,42.30
2022-08-16T10:19:56.662Z,39.70
2022-08-16T10:22:23.769Z,39.50
2022-08-16T10:24:55.704Z,39.70
2022-08-16T10:27:30.250Z,39.40
2022-08-16T10:30:28.321Z,38.60
2022-08-16T10:32:56.451Z,38.20
2022-08-16T10:35:24.782Z,36.70
2022-08-16T10:38:00.347Z,34.90
2022-08-16T10:40:29.119Z,35.90
2022-08-16T10:43:01.803Z,34.50
2022-08-16T10:45:37.007Z,31.90
2022-08-16T10:48:27.965Z,32.40
2022-08-16T10:50:58.145Z,32.10
2022-08-16T10:53:32.937Z,30.60
2022-08-16T10:56:05.384Z,30.30
2022-08-16T10:58:52.921Z,27.70
2022-08-16T11:01:43.146Z,25.90
2022-08-16T11:05:04.385Z,28.00
2022-08-16T11:09:43.236Z,29.20
2022-08-16T11:12:13.767Z,30.10
2022-08-16T11:15:11.219Z,29.70
2022-08-16T11:17:28.845Z,28.50
2022-08-16T11:20:40.725Z,27.30
2022-08-16T11:22:49.183Z,26.80
2022-08-16T11:28:12.230Z,25.60
2022-08-16T11:30:59.592Z,26.50
2022-08-16T11:36:22.440Z,28.70
2022-08-16T11:38:57.490Z,30.50
2022-08-16T11:41:30.811Z,24.40
2022-08-16T11:44:00.265Z,25.60
2022-08-16T11:46:45.322Z,25.80
2022-08-16T11:49:14.565Z,26.60
2022-08-16T11:51:45.934Z,25.60
2022-08-16T11:54:21.732Z,25.10
2022-08-16T11:56:52.646Z,23.20
2022-08-16T11:59:28.543Z,24.00
2022-08-16T12:01:59.809Z,24.40
2022-08-16T12:04:28.912Z,24.00
2022-08-16T12:06:57.396Z,24.20
2022-08-16T12:09:24.872Z,24.70
2022-08-16T12:11:57.725Z,23.80
2022-08-16T12:14:25.344Z,24.80
2022-08-16T12:16:56.826Z,25.90
2022-08-16T12:19:34.026Z,26.20
2022-08-16T12:22:05.465Z,23.30
2022-08-16T12:24:45.780Z,22.10
2022-08-16T12:27:18.636Z,21.20
2022-08-16T12:29:45.708Z,21.70
2022-08-16T12:32:38.281Z,22.50
2022-08-16T12:35:00.208Z,23.10
2022-08-16T12:37:27.979Z,28.10
2022-08-16T12:39:56.774Z,23.00
2022-08-16T12:42:35.578Z,21.70
2022-08-16T12:45:06.185Z,20.10
2022-08-16T12:47:53.232Z,21.60
2022-08-16T12:50:33.373Z,19.70
2022-08-16T12:53:01.153Z,20.70
2022-08-16T12:55:33.542Z,19.30
2022-08-16T12:58:00.876Z,18.30
2022-08-16T13:00:32.886Z,18.20
2022-08-16T13:03:03.038Z,18.70
2022-08-16T13:08:03.898Z,20.50
2022-08-16T13:10:37.391Z,20.60
2022-08-16T13:13:08.778Z,19.60
2022-08-16T13:15:55.515Z,19.90
2022-08-16T13:18:33.491Z,19.90
2022-08-16T13:21:06.623Z,19.50
2022-08-16T13:23:35.903Z,18.90
2022-08-16T13:26:04.053Z,18.60
2022-08-16T13:28:31.487Z,17.60
2022-08-16T13:30:59.435Z,19.30
2022-08-16T13:33:30.694Z,20.20
2022-08-16T13:36:00.109Z,19.00
2022-08-16T13:38:36.404Z,18.00
2022-08-16T13:41:09.630Z,17.10
2022-08-16T13:43:38.350Z,16.20
2022-08-16T13:46:06.779Z,16.00
2022-08-16T13:48:42.933Z,15.50
2022-08-16T13:51:18.577Z,15.30
2022-08-16T13:53:59.239Z,15.30
2022-08-16T13:56:35.994Z,15.60
2022-08-16T13:59:20.259Z,16.00
2022-08-16T14:01:55.352Z,15.40
2022-08-16T14:04:29.104Z,13.50
2022-08-16T14:07:00.189Z,13.60
2022-08-16T14:09:28.928Z,13.90
2022-08-16T14:11:58.163Z,14.80
2022-08-16T14:14:30.047Z,15.00
2022-08-16T14:16:59.800Z,14.60
2022-08-16T14:19:29.800Z,13.90
2022-08-16T14:22:14.006Z,16.00
2022-08-16T14:24:45.044Z,17.80
2022-08-16T14:27:15.406Z,16.40
2022-08-16T14:29:42.568Z,19.80
2022-08-16T14:32:09.652Z,14.50
2022-08-16T14:34:49.378Z,13.40
2022-08-16T14:37:18.893Z,12.80
2022-08-16T14:39:46.378Z,12.70
2022-08-16T14:42:19.599Z,13.10
2022-08-16T14:44:47.946Z,12.70
2022-08-16T14:47:17.784Z,12.40
2022-08-16T14:49:44.890Z,12.90
2022-08-16T14:52:20.333Z,12.70
2022-08-16T14:55:03.311Z,12.30
2022-08-16T14:57:30.354Z,14.90
2022-08-16T15:00:00.800Z,14.50
2022-08-16T15:02:34.301Z,14.30
2022-08-16T15:05:04.413Z,13.40
2022-08-16T15:07:35.143Z,12.50
2022-08-16T15:10:03.852Z,12.80
2022-08-16T15:12:33.652Z,12.50
2022-08-16T15:15:13.152Z,11.10
2022-08-16T15:17:54.644Z,12.00
2022-08-16T15:20:30.086Z,12.00
2022-08-16T15:22:59.417Z,12.30
2022-08-16T15:25:33.225Z,12.60
2022-08-16T15:28:05.790Z,13.60
2022-08-16T15:30:57.780Z,12.90
2022-08-16T15:33:25.317Z,12.20
2022-08-16T15:35:58.540Z,12.10
2022-08-16T15:38:56.824Z,12.50
2022-08-16T15:42:01.119Z,10.20
2022-08-16T15:44:42.750Z,10.00
2022-08-16T15:47:19.796Z,10.30
2022-08-16T15:49:53.101Z,10.20
2022-08-16T15:52:30.360Z,8.90
2022-08-16T15:55:13.385Z,9.00
2022-08-16T15:57:51.702Z,8.00
2022-08-16T16:00:20.837Z,8.50
2022-08-16T16:02:49.497Z,8.20
2022-08-16T16:05:17.150Z,7.90
2022-08-16T16:07:56.676Z,7.40
2022-08-16T16:10:32.769Z,6.50
2022-08-16T16:13:01.731Z,7.10
2022-08-16T16:15:33.663Z,8.00
2022-08-16T16:18:09.176Z,8.30
2022-08-16T16:20:38.929Z,8.90
2022-08-16T16:23:10.247Z,9.20
2022-08-16T16:25:39.904Z,9.70
2022-08-16T16:29:05.061Z,10.30
2022-08-16T16:31:07.611Z,11.30
2022-08-16T16:33:40.022Z,10.40
2022-08-16T16:36:08.491Z,10.40
2022-08-16T16:38:35.907Z,10.60
2022-08-16T16:41:11.673Z,11.10
2022-08-16T16:43:41.547Z,11.30
2022-08-16T16:46:40.542Z,11.30
2022-08-16T16:48:57.031Z,17.10
2022-08-16T16:51:24.607Z,14.30
2022-08-16T16:53:56.876Z,13.40
2022-08-16T16:56:31.271Z,13.40
2022-08-16T16:59:07.012Z,13.00
2022-08-16T17:02:00.479Z,12.60
2022-08-16T17:04:34.738Z,14.40
2022-08-16T18:48:09.211Z,39.30
2022-08-16T19:00:56.470Z,39.80
2022-08-16T20:29:15.482Z,39.40
2022-08-16T20:31:42.557Z,40.40
2022-08-16T20:34:09.729Z,40.70
2022-08-16T20:36:37.226Z,41.20
2022-08-16T20:39:05.181Z,42.60
2022-08-16T20:41:32.310Z,44.10
2022-08-16T20:43:59.351Z,45.20
2022-08-16T20:46:26.557Z,46.00
2022-08-16T20:48:53.694Z,46.40
2022-08-16T20:51:20.794Z,46.40
2022-08-16T20:53:47.886Z,46.70
2022-08-16T20:56:14.915Z,47.90
2022-08-16T20:58:41.977Z,48.10
2022-08-16T21:01:09.057Z,48.40
2022-08-16T21:03:36.876Z,49.30
2022-08-16T21:06:04.642Z,50.20
2022-08-16T21:08:53.165Z,50.30
2022-08-16T21:11:21.666Z,51.10
2022-08-16T21:13:49.177Z,52.50
2022-08-16T21:16:17.622Z,51.70
2022-08-16T21:18:44.783Z,52.10
2022-08-16T21:21:12.299Z,52.00
2022-08-16T21:23:39.383Z,52.30
2022-08-16T21:26:07.375Z,51.50
2022-08-16T21:28:43.318Z,53.40
2022-08-16T21:31:12.210Z,53.90
2022-08-16T21:33:39.448Z,54.60
2022-08-16T21:36:07.013Z,55.00
2022-08-16T21:38:34.180Z,54.70
2022-08-16T21:41:03.243Z,55.20
2022-08-16T21:43:32.941Z,54.80
2022-08-16T21:46:04.649Z,55.40
2022-08-16T21:48:35.030Z,55.70
2022-08-16T21:51:09.142Z,56.30
2022-08-16T21:53:37.698Z,57.00
2022-08-16T21:56:06.302Z,56.20
2022-08-16T21:58:33.454Z,56.60
2022-08-16T22:01:02.394Z,56.10
2022-08-16T22:03:32.843Z,56.40
2022-08-16T22:06:12.954Z,56.50
2022-08-16T22:08:49.588Z,56.50
2022-08-16T22:11:22.952Z,57.10
2022-08-16T22:13:58.856Z,56.00
2022-08-16T22:16:33.344Z,53.60
2022-08-16T22:19:01.752Z,53.40
2022-08-16T22:21:29.595Z,53.10
2022-08-16T22:23:58.646Z,55.80
2022-08-16T22:26:30.593Z,55.50
2022-08-16T22:29:04.652Z,56.30
2022-08-16T22:31:32.318Z,57.30
2022-08-16T22:34:01.895Z,58.00
2022-08-16T22:36:30.333Z,57.90
2022-08-16T22:38:59.825Z,58.40
2022-08-16T22:41:28.869Z,58.80
2022-08-16T22:43:56.388Z,60.00
2022-08-16T22:46:23.580Z,60.40
2022-08-16T22:48:51.069Z,59.90
2022-08-16T22:51:19.775Z,60.40
2022-08-16T22:53:47.387Z,61.10
2022-08-16T22:56:15.753Z,61.50
2022-08-16T22:58:43.212Z,60.30
2022-08-16T23:01:12.207Z,60.00
2022-08-16T23:03:39.661Z,61.70
2022-08-16T23:06:08.121Z,62.40
2022-08-16T23:08:39.483Z,62.60
2022-08-16T23:11:22.999Z,62.60
2022-08-16T23:14:10.058Z,63.10
2022-08-16T23:16:37.250Z,63.10
2022-08-16T23:19:09.961Z,64.40
2022-08-16T23:21:39.664Z,64.60
2022-08-16T23:24:08.516Z,65.40
2022-08-16T23:26:45.560Z,64.50
2022-08-16T23:29:24.974Z,64.80
2022-08-16T23:31:59.201Z,65.20
2022-08-16T23:34:28.027Z,66.10
2022-08-16T23:36:55.810Z,65.90
2022-08-16T23:39:23.760Z,66.40
2022-08-16T23:41:52.000Z,67.40
2022-08-16T23:44:55.573Z,67.30
2022-08-16T23:47:06.357Z,68.00
2022-08-16T23:49:59.358Z,67.40
2022-08-16T23:52:42.165Z,69.30
2022-08-16T23:55:09.103Z,67.90
2022-08-16T23:57:36.129Z,70.20
